Time;durP1;ratioP1;P1;durP2;ratioP2;P2;SDS_P1;SDS_P2;PMS_P1;PMS_P2;Temp;Humidity;BMP_temperature;BMP_pressure;BME280_temperature;BME280_humidity;BME280_pressure;Samples;Min_cycle;Max_cycle;Signal;HPM_P1;HPM_P2
2021/05/26 00:00:27;;;;;;;5.25;4.75;;;18.80;55.50;;;;;;6151774;23;20185;-84
2021/05/26 00:03:00;;;;;;;6.15;4.80;;;18.80;55.50;;;;;;6127790;23;20149;-83
2021/05/26 00:05:29;;;;;;;6.93;5.03;;;18.70;55.50;;;;;;6126826;23;20142;-83
2021/05/26 00:07:58;;;;;;;6.38;5.00;;;18.70;55.50;;;;;;6151478;23;20142;-82
2021/05/26 00:10:25;;;;;;;7.80;4.85;;;18.70;55.50;;;;;;6151211;23;20150;-82
2021/05/26 00:12:54;;;;;;;7.18;5.03;;;18.70;55.50;;;;;;6151191;23;20154;-83
2021/05/26 00:15:20;;;;;;;6.75;5.22;;;18.70;55.50;;;;;;6151123;23;20146;-83
2021/05/26 00:17:46;;;;;;;7.30;5.20;;;18.70;55.50;;;;;;6126876;23;20256;-83
2021/05/26 00:20:19;;;;;;;8.35;5.72;;;18.70;55.60;;;;;;6151967;23;20143;-83
2021/05/26 00:23:16;;;;;;;7.40;4.65;;;18.70;55.50;;;;;;6151304;23;20159;-83
2021/05/26 00:25:42;;;;;;;6.65;4.90;;;18.80;55.60;;;;;;6175297;23;20131;-83
2021/05/26 00:28:16;;;;;;;5.72;5.07;;;18.70;55.50;;;;;;6151154;23;20166;-84
2021/05/26 00:30:47;;;;;;;5.28;4.78;;;18.70;55.60;;;;;;6151886;23;20146;-83
2021/05/26 00:33:35;;;;;;;5.63;4.95;;;18.70;55.50;;;;;;6174964;23;20178;-83
2021/05/26 00:36:02;;;;;;;6.68;5.05;;;18.70;55.60;;;;;;6201107;23;20154;-83
2021/05/26 00:38:28;;;;;;;7.03;5.20;;;18.70;55.70;;;;;;6150384;23;20135;-83
2021/05/26 00:40:58;;;;;;;7.70;5.07;;;18.60;55.60;;;;;;6127152;23;20146;-83
2021/05/26 00:43:24;;;;;;;9.45;5.22;;;18.70;55.70;;;;;;6150473;23;20149;-84
2021/05/26 00:45:51;;;;;;;6.72;5.10;;;18.70;55.80;;;;;;6126377;23;20134;-83
2021/05/26 00:48:38;;;;;;;6.07;5.00;;;18.70;55.70;;;;;;6126119;23;20143;-83
2021/05/26 00:51:08;;;;;;;5.75;4.93;;;18.70;55.80;;;;;;6174847;23;20127;-84
2021/05/26 00:54:00;;;;;;;6.35;5.10;;;18.70;55.80;;;;;;6126554;23;20614;-83
2021/05/26 00:56:26;;;;;;;5.80;4.72;;;18.70;55.80;;;;;;6201390;23;20142;-84
2021/05/26 00:58:52;;;;;;;6.90;5.40;;;18.70;55.80;;;;;;6125763;23;20225;-83
2021/05/26 01:01:21;;;;;;;5.40;4.90;;;18.70;55.80;;;;;;6150882;23;20131;-84
2021/05/26 01:03:49;;;;;;;6.13;5.10;;;18.70;55.80;;;;;;6150797;23;20147;-83
2021/05/26 01:06:16;;;;;;;5.13;4.63;;;18.70;55.80;;;;;;6150713;23;20147;-83
2021/05/26 01:08:42;;;;;;;6.63;5.45;;;18.60;55.80;;;;;;6149874;23;20218;-83
2021/05/26 01:11:27;;;;;;;7.88;5.25;;;18.70;55.80;;;;;;6125508;23;20150;-84
2021/05/26 01:13:52;;;;;;;5.47;4.88;;;18.70;55.80;;;;;;6201085;23;20174;-83
2021/05/26 01:16:18;;;;;;;6.43;5.28;;;18.70;55.90;;;;;;6125889;23;20277;-83
2021/05/26 01:19:05;;;;;;;7.32;5.15;;;18.70;55.90;;;;;;6126126;23;20155;-83
2021/05/26 01:21:32;;;;;;;7.25;5.18;;;18.70;55.90;;;;;;6200833;23;20135;-83
2021/05/26 01:23:59;;;;;;;7.18;5.65;;;18.70;56.00;;;;;;6174994;23;20131;-82
2021/05/26 01:26:25;;;;;;;7.03;5.40;;;18.60;55.90;;;;;;6150285;23;20139;-83
2021/05/26 01:28:51;;;;;;;7.20;5.10;;;18.60;55.90;;;;;;6125973;23;20151;-83
2021/05/26 01:31:21;;;;;;;5.75;4.95;;;18.60;55.90;;;;;;6125956;23;20157;-83
2021/05/26 01:37:09;;;;;;;6.75;5.38;;;18.60;56.00;;;;;;6200122;23;20161;-83
2021/05/26 01:39:36;;;;;;;6.28;5.35;;;18.60;56.00;;;;;;6150986;23;20151;-82
2021/05/26 01:42:30;;;;;;;6.30;5.47;;;18.60;56.00;;;;;;6150292;23;20138;-83
2021/05/26 01:44:56;;;;;;;6.10;5.35;;;18.60;56.00;;;;;;6149847;23;20145;-83
2021/05/26 01:47:50;;;;;;;6.88;5.35;;;18.60;56.10;;;;;;6150349;23;20202;-83
2021/05/26 01:50:21;;;;;;;6.18;5.13;;;18.60;56.00;;;;;;6149631;23;20149;-83
2021/05/26 01:53:00;;;;;;;6.53;5.20;;;18.60;55.90;;;;;;6150482;23;20170;-83
2021/05/26 01:55:26;;;;;;;5.47;4.70;;;18.60;56.00;;;;;;6175142;23;20131;-83
2021/05/26 01:57:52;;;;;;;5.53;4.88;;;18.60;56.00;;;;;;6125899;23;20142;-84
2021/05/26 02:00:19;;;;;;;6.55;4.97;;;18.60;56.00;;;;;;6125384;23;20170;-83
2021/05/26 02:02:45;;;;;;;6.97;5.50;;;18.60;56.00;;;;;;6125562;23;20559;-83
2021/05/26 02:05:13;;;;;;;6.05;5.28;;;18.60;56.10;;;;;;6150468;23;20150;-83
2021/05/26 02:07:48;;;;;;;5.90;5.30;;;18.60;56.00;;;;;;6150066;23;20147;-83
2021/05/26 02:10:16;;;;;;;5.72;4.82;;;18.60;56.00;;;;;;6174501;23;20133;-83
2021/05/26 02:12:43;;;;;;;8.02;5.32;;;18.60;56.10;;;;;;6174409;23;20142;-83
2021/05/26 02:15:14;;;;;;;6.43;5.22;;;18.60;56.10;;;;;;6175652;23;20167;-83
2021/05/26 02:17:39;;;;;;;7.07;5.03;;;18.60;56.10;;;;;;6173673;23;20185;-83
2021/05/26 02:20:08;;;;;;;6.30;4.82;;;18.60;56.10;;;;;;6125958;23;20204;-83
2021/05/26 02:22:34;;;;;;;6.00;5.10;;;18.60;56.10;;;;;;6125788;23;20143;-83
2021/05/26 02:31:45;;;;;;;7.25;5.22;;;18.60;56.20;;;;;;6199645;23;20135;-83
2021/05/26 02:34:17;;;;;;;6.47;5.22;;;18.60;56.20;;;;;;6125799;23;20246;-83
2021/05/26 02:36:45;;;;;;;6.65;4.80;;;18.60;56.20;;;;;;6175140;23;20127;-83
2021/05/26 02:39:14;;;;;;;6.47;5.10;;;18.60;56.20;;;;;;6149830;23;20150;-84
2021/05/26 02:41:46;;;;;;;7.65;4.97;;;18.60;56.20;;;;;;6173947;23;20138;-83
2021/05/26 02:44:23;;;;;;;7.32;5.32;;;18.60;56.30;;;;;;6150291;23;20161;-83
2021/05/26 02:46:55;;;;;;;6.30;5.60;;;18.60;56.20;;;;;;6150002;23;20207;-83
2021/05/26 02:49:24;;;;;;;5.85;4.90;;;18.60;56.20;;;;;;6124856;23;20147;-83
2021/05/26 02:51:51;;;;;;;5.97;5.35;;;18.60;56.20;;;;;;6149174;23;20139;-83
2021/05/26 02:54:17;;;;;;;6.30;5.15;;;18.50;56.30;;;;;;6124888;23;20189;-83
2021/05/26 02:56:43;;;;;;;5.75;5.15;;;18.50;56.20;;;;;;6149228;23;20142;-83
2021/05/26 02:59:12;;;;;;;7.13;5.03;;;18.60;56.30;;;;;;6149777;23;20577;-83
2021/05/26 03:01:40;;;;;;;5.43;4.93;;;18.60;56.30;;;;;;6126115;23;20149;-83
2021/05/26 03:04:06;;;;;;;5.80;5.20;;;18.50;56.30;;;;;;6149727;23;20150;-84
2021/05/26 03:07:10;;;;;;;6.78;5.30;;;18.50;56.30;;;;;;6124922;23;20147;-83
2021/05/26 03:09:43;;;;;;;6.28;5.15;;;18.50;56.40;;;;;;6199736;23;20141;-83
2021/05/26 03:15:35;;;;;;;6.65;5.15;;;18.50;56.40;;;;;;6199340;23;20486;-83
2021/05/26 03:18:05;;;;;;;6.97;5.60;;;18.50;56.30;;;;;;6148140;23;20202;-83
2021/05/26 03:24:23;;;;;;;6.95;5.30;;;18.50;56.40;;;;;;6200152;23;20138;-83
2021/05/26 03:26:49;;;;;;;7.88;5.47;;;18.50;56.40;;;;;;6174058;23;20150;-83
2021/05/26 03:29:16;;;;;;;7.95;5.63;;;18.50;56.40;;;;;;6125520;23;20229;-83
2021/05/26 03:31:54;;;;;;;6.47;5.10;;;18.50;56.40;;;;;;6149191;23;20717;-83
2021/05/26 03:34:21;;;;;;;5.63;4.93;;;18.50;56.30;;;;;;6149120;23;20193;-83
2021/05/26 03:36:50;;;;;;;6.00;5.13;;;18.60;56.40;;;;;;6150059;23;20146;-83
2021/05/26 03:40:04;;;;;;;7.38;5.43;;;18.50;56.40;;;;;;6150032;23;20139;-83
2021/05/26 03:42:42;;;;;;;5.63;5.00;;;18.50;56.40;;;;;;6199697;23;20135;-83
2021/05/26 03:45:13;;;;;;;6.78;5.00;;;18.50;56.10;;;;;;6150022;23;20147;-83
2021/05/26 03:48:19;;;;;;;6.38;5.32;;;18.50;56.50;;;;;;6174761;23;20131;-84
2021/05/26 03:50:47;;;;;;;7.30;5.57;;;18.50;56.50;;;;;;6197444;23;20170;-83
2021/05/26 03:53:13;;;;;;;7.05;5.75;;;18.50;56.60;;;;;;6125070;23;20177;-83
2021/05/26 03:55:46;;;;;;;5.63;5.00;;;18.50;56.60;;;;;;6124834;23;20135;-83
2021/05/26 03:58:52;;;;;;;6.65;5.35;;;18.50;56.60;;;;;;6149910;23;20143;-83
2021/05/26 04:01:55;;;;;;;6.32;5.03;;;18.50;56.60;;;;;;6200117;23;20131;-83
2021/05/26 04:04:42;;;;;;;5.85;5.22;;;18.50;56.60;;;;;;6200021;23;20142;-83
2021/05/26 04:07:14;;;;;;;6.20;5.03;;;18.50;56.50;;;;;;6149117;23;20146;-82
2021/05/26 04:09:43;;;;;;;5.88;5.10;;;18.50;56.60;;;;;;6150081;23;20132;-83
2021/05/26 04:12:28;;;;;;;7.15;5.47;;;18.50;56.60;;;;;;6125554;23;20139;-82
2021/05/26 04:15:27;;;;;;;5.63;5.05;;;18.50;56.60;;;;;;6150188;23;20179;-82
2021/05/26 04:17:56;;;;;;;5.50;4.88;;;18.50;56.60;;;;;;6148591;23;20256;-82
2021/05/26 04:20:23;;;;;;;6.15;5.22;;;18.50;56.60;;;;;;6150821;23;20282;-83
2021/05/26 04:29:59;;;;;;;6.25;4.85;;;18.50;56.60;;;;;;6201467;23;20142;-83
2021/05/26 04:32:27;;;;;;;5.72;4.82;;;18.50;56.60;;;;;;6176506;23;20211;-82
2021/05/26 04:34:53;;;;;;;6.05;5.07;;;18.50;57.30;;;;;;6126399;23;20178;-83
2021/05/26 04:37:21;;;;;;;6.05;5.13;;;18.50;56.60;;;;;;6175081;23;20139;-83
2021/05/26 04:39:51;;;;;;;5.55;4.57;;;18.50;56.60;;;;;;6174949;23;20195;-83
2021/05/26 04:42:55;;;;;;;5.60;5.05;;;18.50;56.60;;;;;;6149573;23;20153;-82
2021/05/26 04:45:56;;;;;;;6.03;5.03;;;18.50;56.60;;;;;;6201499;23;20135;-82
2021/05/26 04:48:27;;;;;;;6.75;5.20;;;18.50;56.60;;;;;;6175460;23;20245;-83
2021/05/26 04:50:54;;;;;;;6.60;5.05;;;18.50;56.60;;;;;;6149036;23;20151;-83
2021/05/26 04:53:22;;;;;;;6.72;4.78;;;18.50;56.60;;;;;;6126559;23;20175;-83
2021/05/26 04:56:34;;;;;;;5.88;4.82;;;18.50;56.60;;;;;;6126653;23;20143;-83
2021/05/26 04:59:00;;;;;;;6.18;5.32;;;18.50;56.60;;;;;;6199818;23;20151;-83
2021/05/26 05:01:27;;;;;;;5.80;5.20;;;18.50;56.60;;;;;;6150708;23;20166;-83
2021/05/26 05:03:54;;;;;;;5.97;5.07;;;18.50;56.60;;;;;;6150414;23;20134;-83
2021/05/26 05:06:23;;;;;;;8.00;5.00;;;18.50;56.60;;;;;;6126314;23;20579;-83
2021/05/26 05:15:42;;;;;;;5.32;4.72;;;18.50;56.60;;;;;;6200527;23;20154;-82
2021/05/26 05:18:12;;;;;;;5.75;4.80;;;18.50;56.60;;;;;;6174476;23;20217;-83
2021/05/26 05:20:38;;;;;;;5.22;4.70;;;18.50;56.70;;;;;;6125361;23;20146;-83
2021/05/26 05:23:05;;;;;;;5.75;4.93;;;18.50;56.60;;;;;;6121619;23;20207;-83
2021/05/26 05:25:30;;;;;;;5.63;5.03;;;18.50;56.60;;;;;;6172160;23;20135;-83
2021/05/26 05:27:57;;;;;;;5.28;4.68;;;18.50;56.60;;;;;;6149527;23;20213;-83
2021/05/26 05:30:23;;;;;;;5.45;4.85;;;18.50;56.60;;;;;;6123849;23;20146;-83
2021/05/26 05:32:55;;;;;;;5.45;4.72;;;18.50;56.50;;;;;;6147413;23;20139;-82
2021/05/26 05:35:21;;;;;;;6.82;4.85;;;18.50;56.60;;;;;;6122920;23;20189;-84
2021/05/26 05:37:49;;;;;;;6.05;5.30;;;18.50;56.60;;;;;;6122674;23;20167;-83
2021/05/26 05:40:16;;;;;;;6.90;5.05;;;18.50;56.60;;;;;;6171298;23;20147;-83
2021/05/26 05:42:43;;;;;;;5.05;4.43;;;18.50;56.70;;;;;;6146672;23;20150;-82
2021/05/26 05:45:12;;;;;;;5.72;4.75;;;18.50;56.60;;;;;;6146427;23;20150;-83
2021/05/26 05:47:37;;;;;;;5.60;4.63;;;18.50;56.60;;;;;;6172257;23;20130;-83
2021/05/26 05:50:03;;;;;;;5.35;4.85;;;18.50;56.70;;;;;;6123806;23;20177;-83
2021/05/26 05:52:29;;;;;;;5.40;4.82;;;18.50;57.30;;;;;;6147707;23;20482;-83
2021/05/26 05:54:56;;;;;;;5.70;4.60;;;18.50;56.70;;;;;;6146890;23;20170;-83
2021/05/26 05:57:22;;;;;;;5.97;4.72;;;18.50;56.70;;;;;;6121538;23;20256;-83
2021/05/26 05:59:48;;;;;;;4.97;4.47;;;18.50;56.70;;;;;;6121835;23;20147;-83
2021/05/26 06:02:13;;;;;;;5.65;4.45;;;18.50;56.60;;;;;;6122128;23;20210;-83
2021/05/26 06:04:40;;;;;;;5.95;4.90;;;18.50;56.60;;;;;;6141742;23;20574;-83
2021/05/26 06:07:06;;;;;;;5.80;4.60;;;18.50;56.70;;;;;;6116563;23;20154;-84
2021/05/26 06:09:32;;;;;;;6.25;4.80;;;18.50;56.60;;;;;;6144261;23;20139;-84
2021/05/26 06:11:59;;;;;;;5.07;4.57;;;18.50;57.30;;;;;;6143893;23;20142;-82
2021/05/26 06:14:25;;;;;;;5.00;4.10;;;18.50;56.70;;;;;;6119470;23;20181;-83
2021/05/26 06:16:52;;;;;;;4.70;4.20;;;18.50;56.80;;;;;;6137497;23;20508;-84
2021/05/26 06:19:18;;;;;;;5.30;4.80;;;18.50;56.70;;;;;;6134249;23;20148;-83
2021/05/26 06:21:44;;;;;;;5.78;4.72;;;18.50;56.70;;;;;;6141977;23;20460;-85
2021/05/26 06:24:10;;;;;;;5.30;4.60;;;18.50;56.70;;;;;;6113240;23;20203;-83
2021/05/26 06:26:37;;;;;;;5.45;4.30;;;18.50;56.70;;;;;;6131672;23;20144;-85
2021/05/26 06:29:04;;;;;;;5.00;4.30;;;18.50;56.60;;;;;;6130191;23;20611;-86
2021/05/26 06:31:31;;;;;;;6.25;4.88;;;18.50;56.70;;;;;;6130373;23;20165;-84
2021/05/26 06:33:57;;;;;;;6.28;5.07;;;18.50;56.70;;;;;;6160899;23;20167;-85
2021/05/26 06:36:23;;;;;;;5.63;4.47;;;18.50;56.80;;;;;;6109536;23;20170;-88
2021/05/26 06:38:58;;;;;;;6.00;4.90;;;18.50;56.60;;;;;;6109460;23;20151;-87
2021/05/26 06:42:07;;;;;;;4.85;4.28;;;18.50;56.70;;;;;;6112219;23;20200;-88
2021/05/26 06:44:38;;;;;;;5.10;4.60;;;18.50;56.70;;;;;;6118211;23;20158;-84
2021/05/26 06:47:10;;;;;;;6.50;4.53;;;18.50;56.80;;;;;;6116176;23;20178;-85
2021/05/26 06:50:19;;;;;;;5.10;4.18;;;18.50;56.80;;;;;;6137845;23;20140;-87
2021/05/26 06:53:09;;;;;;;6.72;4.63;;;18.50;56.80;;;;;;6111076;23;20155;-86
2021/05/26 06:55:44;;;;;;;5.45;4.50;;;18.50;56.90;;;;;;6091261;23;20182;-86
2021/05/26 06:58:13;;;;;;;5.93;4.45;;;18.50;56.80;;;;;;6111679;23;20138;-88
2021/05/26 07:00:52;;;;;;;6.00;4.35;;;18.50;56.80;;;;;;6087083;23;20144;-84
2021/05/26 07:03:28;;;;;;;4.60;4.00;;;18.50;56.80;;;;;;6136212;23;20167;-81
2021/05/26 07:06:01;;;;;;;5.05;4.55;;;18.50;56.70;;;;;;6163215;23;20255;-84
2021/05/26 07:08:29;;;;;;;5.68;4.30;;;18.60;56.80;;;;;;6115313;23;20246;-83
2021/05/26 07:10:55;;;;;;;5.32;4.68;;;18.60;56.90;;;;;;6139754;23;20242;-84
2021/05/26 07:13:29;;;;;;;5.57;3.92;;;18.60;57.10;;;;;;6110750;23;20178;-84
2021/05/26 07:15:55;;;;;;;7.07;4.20;;;18.60;57.20;;;;;;6135951;23;20234;-86
2021/05/26 07:18:26;;;;;;;6.03;4.40;;;18.60;56.90;;;;;;6138353;23;20500;-82
2021/05/26 07:20:53;;;;;;;5.15;4.65;;;18.60;57.20;;;;;;6162525;23;20226;-80
2021/05/26 07:23:29;;;;;;;5.95;4.28;;;18.60;57.10;;;;;;6138074;23;20186;-81
2021/05/26 07:25:58;;;;;;;4.95;4.32;;;18.60;57.40;;;;;;6166601;23;20162;-81
2021/05/26 07:28:28;;;;;;;5.35;4.22;;;18.60;57.10;;;;;;6165130;23;20150;-83
2021/05/26 07:30:59;;;;;;;5.03;4.22;;;18.70;56.90;;;;;;6141932;23;20162;-80
2021/05/26 07:33:29;;;;;;;6.15;4.53;;;18.70;57.00;;;;;;6168397;23;20192;-80
2021/05/26 07:39:38;;;;;;;;;;;;;;;;;;;;;
2021/05/26 07:42:18;;;;;;;5.45;3.83;;;18.70;56.90;;;;;;6175281;23;20146;-82
2021/05/26 07:44:47;;;;;;;4.75;3.95;;;18.70;56.90;;;;;;6145174;23;20486;-82
2021/05/26 07:47:16;;;;;;;6.78;4.32;;;18.70;56.90;;;;;;6119818;23;20186;-81
2021/05/26 07:49:42;;;;;;;7.20;4.25;;;18.70;56.90;;;;;;6116163;23;20147;-80
2021/05/26 07:52:11;;;;;;;7.20;4.07;;;18.70;57.00;;;;;;6140301;23;20261;-83
2021/05/26 07:54:36;;;;;;;9.52;4.35;;;18.70;57.00;;;;;;6166389;23;20289;-83
2021/05/26 07:57:04;;;;;;;9.57;4.35;;;18.80;56.90;;;;;;6115050;23;20166;-80
2021/05/26 07:59:43;;;;;;;13.63;4.75;;;18.90;56.90;;;;;;6164355;23;20214;-81
2021/05/26 08:02:11;;;;;;;10.93;4.35;;;18.90;56.80;;;;;;6117231;23;20649;-80
2021/05/26 08:04:38;;;;;;;10.85;4.30;;;18.80;56.70;;;;;;6142231;23;20147;-80
2021/05/26 08:07:04;;;;;;;8.88;4.38;;;18.90;56.90;;;;;;6139264;23;20135;-82
2021/05/26 08:09:32;;;;;;;10.73;4.50;;;18.80;57.10;;;;;;6141494;23;20222;-83
2021/05/26 08:12:00;;;;;;;8.52;4.03;;;18.90;57.20;;;;;;6138481;23;20151;-79
2021/05/26 08:14:30;;;;;;;15.32;4.85;;;18.80;57.20;;;;;;6119634;23;20182;-80
2021/05/26 08:17:03;;;;;;;11.48;4.88;;;18.90;57.40;;;;;;6166606;23;20265;-81
2021/05/26 08:23:04;;;;;;;;;;;;;;;;;;;;;
2021/05/26 08:26:20;;;;;;;10.55;4.53;;;18.90;57.60;;;;;;6039728;23;20237;-81
2021/05/26 08:29:08;;;;;;;10.60;4.43;;;18.80;57.50;;;;;;6036827;23;20161;-85
2021/05/26 08:43:31;;;;;;;;;;;;;;;;;;;;;
2021/05/26 09:28:53;;;;;;;11.13;4.40;;;18.90;57.90;;;;;;5818151;24;20199;-83
2021/05/26 09:31:21;;;;;;;10.90;4.85;;;18.90;57.90;;;;;;5849967;24;20172;-82
2021/05/26 09:34:06;;;;;;;11.73;4.10;;;18.80;58.00;;;;;;5832458;24;20189;-84
2021/05/26 09:36:42;;;;;;;9.70;4.57;;;18.90;58.00;;;;;;5937568;23;20154;-83
2021/05/26 09:42:36;;;;;;;12.07;4.28;;;18.80;58.00;;;;;;6170088;23;20158;-81
2021/05/26 09:45:10;;;;;;;9.15;4.10;;;18.90;57.90;;;;;;6120295;23;20147;-82
2021/05/26 09:47:47;;;;;;;6.40;4.10;;;18.90;57.90;;;;;;6143918;23;20171;-81
2021/05/26 09:53:37;;;;;;;8.75;4.47;;;18.80;57.90;;;;;;6169462;23;20177;-81
2021/05/26 09:56:05;;;;;;;11.95;4.53;;;18.90;58.00;;;;;;6143479;23;20158;-81
2021/05/26 09:58:42;;;;;;;11.10;4.30;;;18.90;58.00;;;;;;6143686;23;20136;-81
2021/05/26 10:01:31;;;;;;;9.02;3.97;;;18.90;57.90;;;;;;6143285;23;20131;-82
2021/05/26 10:03:58;;;;;;;7.38;4.40;;;18.90;57.80;;;;;;6143404;23;20139;-82
2021/05/26 10:06:27;;;;;;;6.00;3.67;;;18.90;57.80;;;;;;6143136;23;20493;-82
2021/05/26 10:08:56;;;;;;;13.35;4.55;;;18.90;57.80;;;;;;6142076;23;20211;-82
2021/05/26 10:11:25;;;;;;;9.15;4.65;;;18.90;58.10;;;;;;6141804;23;20274;-83
2021/05/26 10:13:51;;;;;;;10.32;4.50;;;18.90;58.10;;;;;;6118160;23;20611;-83
2021/05/26 10:16:20;;;;;;;9.60;4.70;;;18.80;58.00;;;;;;6095567;23;20143;-81
2021/05/26 10:18:50;;;;;;;10.00;4.13;;;18.80;58.20;;;;;;6093905;23;20203;-80
2021/05/26 10:21:22;;;;;;;12.52;4.68;;;18.90;58.20;;;;;;6093645;23;20143;-81
2021/05/26 10:24:12;;;;;;;6.43;3.70;;;18.90;58.20;;;;;;6117312;23;20139;-82
2021/05/26 10:27:20;;;;;;;;;;;;;;;;;;;;;
2021/05/26 10:29:56;;;;;;;6.13;4.03;;;18.80;58.20;;;;;;6152637;23;20228;-81
2021/05/26 10:32:28;;;;;;;10.18;4.00;;;18.80;58.10;;;;;;6144701;23;20135;-83
2021/05/26 10:34:55;;;;;;;8.63;4.10;;;18.90;58.10;;;;;;6167868;23;20163;-82
2021/05/26 10:37:26;;;;;;;7.72;4.55;;;18.80;58.10;;;;;;6168102;23;20155;-82
2021/05/26 10:39:55;;;;;;;10.98;4.53;;;18.80;58.00;;;;;;6122560;23;20157;-82
2021/05/26 10:42:40;;;;;;;6.03;4.25;;;18.80;58.10;;;;;;6146216;23;20559;-82
2021/05/26 10:45:18;;;;;;;8.32;4.03;;;18.80;58.10;;;;;;6142036;23;20162;-84
2021/05/26 10:48:50;;;;;;;;;;;;;;;;;;;;;
2021/05/26 10:52:01;;;;;;;8.13;3.92;;;18.90;58.00;;;;;;6089660;23;20167;-82
2021/05/26 10:58:39;;;;;;;5.53;4.03;;;18.80;58.00;;;;;;6075649;23;20176;-83
2021/05/26 11:01:55;;;;;;;7.38;4.07;;;18.90;58.10;;;;;;6048511;23;20208;-82
2021/05/26 11:07:44;;;;;;;9.38;3.70;;;18.90;58.20;;;;;;6072521;23;20156;-82
2021/05/26 11:10:32;;;;;;;6.20;3.88;;;18.90;57.90;;;;;;6005906;23;20157;-82
2021/05/26 11:12:59;;;;;;;10.05;4.30;;;18.90;58.10;;;;;;6031175;23;20158;-81
2021/05/26 11:15:54;;;;;;;6.45;3.70;;;18.90;58.20;;;;;;5999832;23;20189;-82
2021/05/26 11:21:01;;;;;;;6.70;3.70;;;18.90;57.90;;;;;;6050548;23;20161;-82
2021/05/26 11:23:41;;;;;;;7.65;3.90;;;18.80;58.00;;;;;;6002133;23;20235;-82
2021/05/26 11:26:11;;;;;;;6.55;3.72;;;18.80;57.80;;;;;;6031569;23;20184;-83
2021/05/26 11:28:38;;;;;;;8.05;4.10;;;18.90;57.80;;;;;;6083745;23;20157;-82
2021/05/26 11:31:05;;;;;;;5.72;3.80;;;18.90;57.90;;;;;;6082470;23;20188;-83
2021/05/26 11:33:51;;;;;;;5.88;4.00;;;18.90;57.80;;;;;;6066419;23;20215;-80
2021/05/26 11:36:46;;;;;;;8.10;3.78;;;18.90;57.90;;;;;;6170805;23;20157;-82
2021/05/26 11:39:30;;;;;;;8.00;3.60;;;18.90;58.10;;;;;;6173652;23;20571;-82
2021/05/26 11:42:20;;;;;;;8.48;3.80;;;18.90;57.90;;;;;;6128210;23;20157;-82
2021/05/26 11:44:55;;;;;;;11.98;4.28;;;18.80;57.80;;;;;;6154704;23;20159;-83
2021/05/26 11:47:43;;;;;;;11.82;4.00;;;18.90;58.20;;;;;;6180776;23;20181;-82
2021/05/26 11:53:37;;;;;;;10.35;3.50;;;18.90;57.90;;;;;;6206562;23;20233;-83
2021/05/26 11:56:13;;;;;;;8.80;3.78;;;18.90;58.20;;;;;;6131572;23;20166;-82
2021/05/26 12:05:52;;;;;;;7.00;3.55;;;18.90;57.90;;;;;;6206489;23;20144;-82
2021/05/26 12:08:31;;;;;;;12.98;3.97;;;18.90;58.00;;;;;;6180783;23;20127;-81
2021/05/26 12:11:22;;;;;;;6.43;3.88;;;19.00;58.90;;;;;;6157545;23;20150;-82
2021/05/26 12:14:05;;;;;;;7.68;3.88;;;18.90;58.00;;;;;;6136490;23;20228;-83
2021/05/26 12:16:42;;;;;;;9.55;4.20;;;18.90;58.60;;;;;;6134709;23;20154;-83
2021/05/26 12:19:27;;;;;;;12.10;3.65;;;18.90;58.00;;;;;;6160019;23;20135;-83
2021/05/26 12:22:44;;;;;;;10.77;3.83;;;18.90;58.10;;;;;;6158918;23;20149;-83
2021/05/26 12:28:37;;;;;;;10.27;3.88;;;18.90;58.30;;;;;;6146992;23;20251;-85
2021/05/26 12:31:37;;;;;;;12.40;4.10;;;18.90;58.20;;;;;;6134200;23;20171;-84
2021/05/26 12:36:47;;;;;;;7.78;3.83;;;18.90;58.30;;;;;;6171587;23;20233;-86
2021/05/26 12:39:49;;;;;;;6.63;3.75;;;18.90;58.30;;;;;;6136049;23;20142;-86
2021/05/26 12:42:53;;;;;;;8.65;3.75;;;18.90;58.20;;;;;;6183358;23;20150;-84
2021/05/26 12:52:57;;;;;;;7.93;3.60;;;18.90;58.40;;;;;;6210017;23;20178;-83
2021/05/26 12:55:34;;;;;;;11.25;3.88;;;19.00;58.80;;;;;;6056310;23;20257;-83
2021/05/26 12:58:01;;;;;;;9.55;3.60;;;19.00;58.60;;;;;;6036418;23;20184;-83
2021/05/26 15:57:30;;;;;;;6.50;3.10;;;19.20;58.50;;;;;;6166828;23;20433;-84
2021/05/26 16:00:30;;;;;;;7.47;2.83;;;19.20;59.00;;;;;;6086475;23;20158;-83
2021/05/26 16:03:37;;;;;;;6.50;2.83;;;19.20;58.90;;;;;;6202434;23;20579;-85
2021/05/26 16:06:45;;;;;;;6.82;2.80;;;19.10;59.10;;;;;;6206917;23;20154;-84
2021/05/26 16:09:27;;;;;;;5.20;2.60;;;19.20;58.60;;;;;;6184148;23;20147;-84
2021/05/26 16:12:19;;;;;;;6.75;2.67;;;19.20;58.50;;;;;;6182673;23;20142;-85
2021/05/26 16:15:18;;;;;;;6.30;2.80;;;19.20;58.70;;;;;;6182570;23;20162;-84
2021/05/26 16:21:11;;;;;;;4.70;2.60;;;19.20;58.40;;;;;;6206533;23;20150;-83
2021/05/26 16:23:48;;;;;;;5.35;2.28;;;19.20;58.80;;;;;;6157533;23;20154;-84
2021/05/26 16:26:25;;;;;;;6.18;2.63;;;19.20;57.60;;;;;;6154836;23;20147;-84
2021/05/26 16:28:56;;;;;;;7.85;2.28;;;19.20;57.70;;;;;;6151813;23;20158;-83
2021/05/26 16:31:24;;;;;;;14.73;2.67;;;19.30;57.90;;;;;;6149863;23;20152;-84
2021/05/26 16:34:05;;;;;;;9.40;2.50;;;19.30;58.30;;;;;;6151512;23;20175;-83
2021/05/26 16:36:41;;;;;;;8.45;2.40;;;19.30;58.40;;;;;;6128161;23;20166;-84
2021/05/26 16:39:10;;;;;;;8.90;2.55;;;19.30;58.20;;;;;;6179310;23;20123;-82
2021/05/26 16:41:49;;;;;;;17.85;3.10;;;19.30;58.60;;;;;;6179116;23;20151;-83
2021/05/26 16:44:27;;;;;;;9.90;2.55;;;19.30;58.20;;;;;;6180727;23;20135;-83
2021/05/26 16:47:07;;;;;;;7.28;2.60;;;19.30;58.90;;;;;;6153339;23;20166;-84
2021/05/26 16:49:55;;;;;;;17.75;2.70;;;19.30;58.30;;;;;;6178176;23;20139;-83
2021/05/26 16:52:24;;;;;;;8.88;2.33;;;19.30;59.00;;;;;;6181307;23;20239;-83
2021/05/26 16:55:08;;;;;;;11.88;2.75;;;19.40;58.70;;;;;;6150944;23;20177;-83
2021/05/26 16:57:34;;;;;;;12.70;3.08;;;19.30;59.60;;;;;;6075389;23;20183;-83
2021/05/26 17:00:17;;;;;;;15.57;2.33;;;19.40;59.80;;;;;;6126029;23;20136;-83
2021/05/26 17:03:07;;;;;;;18.80;2.50;;;19.40;58.60;;;;;;6153664;23;20132;-83
2021/05/26 17:09:18;;;;;;;7.13;2.30;;;19.30;59.00;;;;;;6178974;23;20126;-83
2021/05/26 17:12:05;;;;;;;8.23;3.03;;;19.30;58.00;;;;;;6148233;23;20212;-83
2021/05/26 17:15:25;;;;;;;10.93;2.45;;;19.30;58.80;;;;;;6139567;23;20175;-84
2021/05/26 17:18:01;;;;;;;5.85;2.33;;;19.30;58.30;;;;;;6164607;23;20151;-83
2021/05/26 17:23:53;;;;;;;8.80;2.33;;;19.30;58.80;;;;;;6161736;23;20229;-84
2021/05/26 17:26:28;;;;;;;6.70;2.05;;;19.30;58.30;;;;;;6111509;23;20155;-86
2021/05/26 17:36:19;;;;;;;3.55;2.00;;;19.30;58.10;;;;;;6168523;23;20609;-83
2021/05/26 17:38:57;;;;;;;6.53;2.60;;;19.30;58.20;;;;;;6135021;23;20167;-83
2021/05/26 17:44:38;;;;;;;6.57;1.92;;;19.20;58.20;;;;;;6169925;23;20140;-84
2021/05/26 17:47:10;;;;;;;5.55;2.05;;;19.30;58.10;;;;;;6094654;23;20226;-84
2021/05/26 17:49:43;;;;;;;11.18;1.98;;;19.30;58.10;;;;;;6118012;23;20240;-85
2021/05/26 17:52:31;;;;;;;8.35;2.33;;;19.30;57.70;;;;;;6095006;23;20503;-84
2021/05/26 17:54:59;;;;;;;5.03;2.20;;;19.30;58.00;;;;;;6168332;23;20159;-83
2021/05/26 17:57:25;;;;;;;6.53;1.90;;;19.30;58.10;;;;;;6098819;23;20164;-83
2021/05/26 17:59:52;;;;;;;10.13;2.00;;;19.30;57.50;;;;;;6146091;23;20146;-85
2021/05/26 18:02:23;;;;;;;9.05;2.10;;;19.30;57.90;;;;;;6123067;23;20178;-82
2021/05/26 18:04:50;;;;;;;12.77;2.25;;;19.30;57.70;;;;;;6144349;23;20227;-84
2021/05/26 18:14:18;;;;;;;15.48;2.30;;;19.30;57.70;;;;;;6165924;23;20249;-84
2021/05/26 18:17:14;;;;;;;9.80;1.92;;;19.30;58.20;;;;;;6134568;23;20138;-84
2021/05/26 19:23:45;;;;;;;4.10;1.25;;;19.20;55.30;;;;;;6176877;23;20208;31
2021/05/26 19:26:17;;;;;;;9.07;1.98;;;19.20;55.60;;;;;;6102203;23;20178;-85
2021/05/26 19:35:03;;;;;;;3.22;1.23;;;19.20;55.00;;;;;;6203517;23;20210;-83
2021/05/26 19:37:36;;;;;;;2.67;1.45;;;19.20;55.10;;;;;;6162076;23;20183;-82
2021/05/26 20:15:26;;;;;;;3.80;1.27;;;19.10;54.00;;;;;;6167948;23;20210;-83
2021/05/26 20:25:00;;;;;;;4.45;1.15;;;19.00;54.00;;;;;;6067154;23;20206;-84
2021/05/26 20:27:50;;;;;;;1.20;0.80;;;19.00;54.20;;;;;;6043688;23;20142;-83
2021/05/26 20:30:50;;;;;;;2.03;1.10;;;19.00;54.00;;;;;;6042830;23;20173;-83
2021/05/26 20:33:39;;;;;;;2.08;1.08;;;19.00;54.00;;;;;;6066699;23;20201;-83
2021/05/26 20:36:36;;;;;;;2.95;1.02;;;19.00;54.30;;;;;;6037854;23;20634;-82
